createdAt,value
2023-11-27T19:58:48.870Z,0.18
2023-11-27T20:01:17.314Z,1.48
2023-11-27T20:03:45.009Z,1.81
2023-11-27T20:06:12.269Z,2.15
2023-11-27T20:08:40.045Z,2.30
2023-11-27T20:11:08.775Z,2.42
2023-11-27T20:13:42.813Z,2.53
2023-11-27T20:16:10.804Z,2.62
2023-11-27T20:18:37.939Z,2.69
2023-11-27T20:21:05.630Z,2.76
2023-11-27T20:23:33.010Z,2.84
2023-11-27T20:26:00.050Z,2.92
2023-11-27T20:28:26.993Z,3.02
2023-11-27T20:30:55.091Z,3.09
2023-11-27T20:33:42.588Z,3.16
2023-11-27T20:36:09.822Z,3.21
2023-11-27T20:38:36.709Z,3.25
2023-11-27T20:41:03.926Z,3.30
2023-11-27T20:43:31.688Z,3.35
2023-11-27T20:45:58.789Z,3.37
2023-11-27T20:48:28.919Z,3.39
2023-11-27T20:50:55.670Z,3.41
2023-11-27T20:53:22.508Z,3.41
2023-11-27T20:55:50.627Z,3.43
2023-11-27T20:58:21.247Z,3.45
2023-11-27T21:00:48.571Z,3.46
2023-11-27T21:03:16.344Z,3.48
2023-11-27T21:05:46.519Z,3.49
2023-11-27T21:08:13.771Z,3.49
2023-11-27T21:10:40.908Z,3.52
2023-11-27T21:13:08.434Z,3.55
2023-11-27T21:15:35.490Z,3.56
2023-11-27T21:18:02.809Z,3.59
2023-11-27T21:20:29.910Z,3.78
2023-11-27T21:22:57.262Z,3.85
2023-11-27T21:25:24.486Z,3.77
2023-11-27T21:27:53.119Z,3.67
2023-11-27T21:30:19.850Z,3.65
2023-11-27T21:32:47.822Z,3.65
2023-11-27T21:35:15.930Z,3.64
2023-11-27T21:37:43.718Z,3.63
2023-11-27T21:40:11.236Z,3.66
2023-11-27T21:42:41.491Z,3.64
2023-11-27T21:45:09.619Z,3.64
2023-11-27T21:47:37.857Z,3.81
2023-11-27T21:50:07.289Z,3.88
2023-11-27T21:52:34.218Z,3.91
2023-11-27T21:55:01.232Z,3.94
2023-11-27T21:57:28.364Z,3.93
2023-11-27T21:59:55.331Z,3.91
2023-11-27T22:02:24.545Z,3.90
2023-11-27T22:04:52.211Z,3.89
2023-11-27T22:07:19.343Z,3.92
2023-11-27T22:09:47.790Z,3.85
2023-11-27T22:12:15.174Z,3.92
2023-11-27T22:14:42.306Z,3.93
2023-11-27T22:17:09.352Z,3.88
2023-11-27T22:19:36.811Z,3.73
2023-11-27T22:22:03.651Z,3.69
2023-11-27T22:24:30.653Z,3.67
2023-11-27T22:26:57.827Z,3.65
2023-11-27T22:29:24.560Z,3.65
2023-11-27T22:31:52.490Z,3.63
2023-11-27T22:34:19.685Z,3.61
2023-11-27T22:36:46.531Z,3.60
2023-11-27T22:39:13.339Z,3.60
2023-11-27T22:41:43.830Z,3.58
2023-11-27T22:44:10.781Z,3.52
2023-11-27T22:46:40.665Z,3.42
2023-11-27T22:49:09.182Z,3.35
2023-11-27T22:51:36.594Z,3.30
2023-11-27T22:54:03.856Z,3.27
2023-11-27T22:56:31.201Z,3.25
2023-11-27T22:59:07.222Z,3.25
2023-11-27T23:01:42.547Z,3.22
2023-11-27T23:04:09.503Z,3.18
2023-11-27T23:06:38.129Z,3.14
2023-11-27T23:09:07.914Z,3.08
2023-11-27T23:11:35.361Z,3.07
2023-11-27T23:14:02.735Z,3.13
2023-11-27T23:16:30.045Z,3.18
2023-11-27T23:18:57.015Z,3.22
2023-11-27T23:21:23.711Z,3.23
2023-11-27T23:23:50.438Z,3.24
2023-11-27T23:26:17.691Z,3.24
2023-11-27T23:28:44.577Z,3.27
2023-11-27T23:31:11.824Z,3.31
2023-11-27T23:33:38.578Z,3.36
2023-11-27T23:36:07.196Z,3.40
2023-11-27T23:38:34.959Z,3.45
2023-11-27T23:41:02.739Z,3.48
2023-11-27T23:43:30.178Z,3.49
2023-11-27T23:45:57.435Z,3.51
2023-11-27T23:48:24.266Z,3.52
2023-11-27T23:50:51.513Z,3.51
2023-11-27T23:53:18.213Z,3.51
2023-11-27T23:55:45.243Z,3.50
2023-11-27T23:58:12.249Z,3.47
